Time;durP1;ratioP1;P1;durP2;ratioP2;P2;SDS_P1;SDS_P2;PMS_P1;PMS_P2;Temp;Humidity;BMP_temperature;BMP_pressure;BME280_temperature;BME280_humidity;BME280_pressure;Samples;Min_cycle;Max_cycle;Signal;HPM_P1;HPM_P2
2023/10/29 00:00:31;;;;;;;6.22;2.30;;;11.10;99.90;;;;;;4994148;28;20034;-68
2023/10/29 00:02:57;;;;;;;3.30;1.70;;;11.10;99.90;;;;;;5005847;28;20104;-68
2023/10/29 00:05:24;;;;;;;4.22;1.80;;;11.10;99.90;;;;;;5002853;28;20026;-68
2023/10/29 00:07:50;;;;;;;5.20;2.20;;;11.10;99.90;;;;;;5004975;28;20040;-68
2023/10/29 00:10:19;;;;;;;6.82;2.08;;;11.20;99.90;;;;;;5019062;28;20398;-68
2023/10/29 00:12:44;;;;;;;2.15;1.55;;;11.20;99.90;;;;;;5003876;28;20040;-68
2023/10/29 00:15:10;;;;;;;3.83;1.80;;;11.20;99.90;;;;;;5003425;28;20484;-68
2023/10/29 00:17:36;;;;;;;2.75;1.70;;;11.20;99.90;;;;;;4993126;28;20803;-68
2023/10/29 00:20:06;;;;;;;3.55;2.13;;;11.20;99.90;;;;;;5003719;28;20056;-68
2023/10/29 00:22:32;;;;;;;4.82;1.92;;;11.20;99.90;;;;;;4998369;28;20022;-68
2023/10/29 00:24:58;;;;;;;3.80;1.77;;;11.20;99.90;;;;;;5003021;28;20030;-68
2023/10/29 00:27:24;;;;;;;3.92;1.77;;;11.20;99.90;;;;;;5003594;28;20052;-68
2023/10/29 00:29:50;;;;;;;3.30;1.83;;;11.20;99.90;;;;;;5004299;28;20113;-69
2023/10/29 00:32:18;;;;;;;3.63;1.65;;;11.20;99.90;;;;;;4995790;28;20129;-68
2023/10/29 00:34:48;;;;;;;4.35;2.00;;;11.20;99.90;;;;;;5013464;28;20033;-68
2023/10/29 00:37:17;;;;;;;2.00;1.50;;;11.20;99.90;;;;;;5004204;28;20119;-69
2023/10/29 00:39:43;;;;;;;2.53;1.70;;;11.20;99.90;;;;;;5036638;28;20056;-68
2023/10/29 00:42:12;;;;;;;4.55;1.83;;;11.30;99.90;;;;;;5006304;28;20056;-68
2023/10/29 00:44:39;;;;;;;2.35;1.25;;;11.20;99.90;;;;;;4999995;28;20037;-69
2023/10/29 00:47:05;;;;;;;2.97;1.65;;;11.20;99.90;;;;;;4996299;28;20505;-68
2023/10/29 00:49:33;;;;;;;3.20;1.73;;;11.20;99.90;;;;;;5000504;28;20060;-68
2023/10/29 00:51:59;;;;;;;4.15;2.05;;;11.30;99.90;;;;;;5020501;28;20034;-69
2023/10/29 00:54:25;;;;;;;3.53;1.63;;;11.20;99.90;;;;;;4998801;28;20026;-68
2023/10/29 00:56:53;;;;;;;5.43;1.50;;;11.20;99.90;;;;;;5001025;28;20558;-68
2023/10/29 00:59:21;;;;;;;5.85;1.50;;;11.20;99.90;;;;;;5004055;28;20137;-68
2023/10/29 01:01:48;;;;;;;2.17;1.60;;;11.30;99.90;;;;;;5005148;28;20546;-68
2023/10/29 01:04:15;;;;;;;2.58;1.40;;;11.30;99.90;;;;;;5001040;28;20148;-68
2023/10/29 01:06:42;;;;;;;2.67;1.45;;;11.30;99.90;;;;;;5000647;28;20044;-68
2023/10/29 01:09:09;;;;;;;3.67;1.38;;;11.30;99.90;;;;;;5004228;28;20030;-68
2023/10/29 01:11:35;;;;;;;9.15;1.40;;;11.40;99.90;;;;;;5006043;28;20415;-68
2023/10/29 01:14:01;;;;;;;3.60;1.70;;;11.40;99.90;;;;;;5003015;28;20057;-68
2023/10/29 01:16:30;;;;;;;1.95;1.20;;;11.40;99.90;;;;;;5005329;28;20032;-68
2023/10/29 01:18:56;;;;;;;3.60;1.50;;;11.40;99.90;;;;;;5003968;28;20045;-68
2023/10/29 01:21:24;;;;;;;5.43;1.45;;;11.40;99.90;;;;;;5005313;28;20048;-68
2023/10/29 01:23:49;;;;;;;5.35;1.50;;;11.40;99.90;;;;;;5003282;28;20040;-68
2023/10/29 01:26:15;;;;;;;5.78;1.75;;;11.40;99.90;;;;;;5004369;28;20029;-69
2023/10/29 01:28:41;;;;;;;5.22;1.52;;;11.40;99.90;;;;;;5004977;28;20668;-68
2023/10/29 01:31:07;;;;;;;5.18;2.05;;;11.40;99.90;;;;;;5005360;28;20033;-68
2023/10/29 01:33:33;;;;;;;2.65;1.50;;;11.50;99.90;;;;;;5035892;28;20029;-68
2023/10/29 01:35:58;;;;;;;1.98;1.40;;;11.50;99.90;;;;;;5000331;28;20037;-68
2023/10/29 01:38:24;;;;;;;6.07;1.55;;;11.50;99.90;;;;;;5003886;28;20030;-69
2023/10/29 01:40:50;;;;;;;4.45;1.77;;;11.40;99.90;;;;;;5001841;28;20034;-68
2023/10/29 01:43:16;;;;;;;2.97;1.63;;;11.50;99.90;;;;;;5003385;28;20037;-68
2023/10/29 01:45:41;;;;;;;5.43;1.60;;;11.50;99.90;;;;;;5003484;28;20022;-68
2023/10/29 01:48:07;;;;;;;4.40;1.58;;;11.50;99.90;;;;;;5003858;28;20506;-68
2023/10/29 01:50:35;;;;;;;2.40;1.52;;;11.50;99.90;;;;;;5003269;28;20037;-68
2023/10/29 01:53:01;;;;;;;6.55;1.30;;;11.50;99.90;;;;;;5002941;28;20061;-68
2023/10/29 01:55:26;;;;;;;2.38;1.40;;;11.50;99.90;;;;;;5003369;28;20631;-68
2023/10/29 01:57:52;;;;;;;4.82;1.80;;;11.50;99.90;;;;;;5003000;28;20040;-68
2023/10/29 02:00:19;;;;;;;6.70;1.60;;;11.50;99.90;;;;;;4999033;28;20119;-68
2023/10/29 02:02:47;;;;;;;4.85;1.70;;;11.50;99.90;;;;;;4999752;28;20033;-68
2023/10/29 02:05:13;;;;;;;2.85;1.20;;;11.50;99.90;;;;;;5002454;28;20030;-68
2023/10/29 02:07:39;;;;;;;5.57;2.67;;;11.50;99.90;;;;;;4998481;28;20026;-67
2023/10/29 02:10:06;;;;;;;3.15;1.15;;;11.60;99.90;;;;;;5002368;28;20037;-68
2023/10/29 02:12:31;;;;;;;4.25;1.48;;;11.60;99.90;;;;;;5013845;28;20132;-68
2023/10/29 02:14:57;;;;;;;4.63;1.45;;;11.50;99.90;;;;;;5002538;28;20771;-68
2023/10/29 02:17:25;;;;;;;2.58;1.25;;;11.50;99.90;;;;;;4995064;28;20087;-68
2023/10/29 02:19:57;;;;;;;3.72;1.35;;;11.50;99.90;;;;;;5016664;28;20092;-68
2023/10/29 02:22:24;;;;;;;4.18;1.20;;;11.50;99.90;;;;;;4997697;28;20030;-68
2023/10/29 02:24:50;;;;;;;2.47;1.23;;;11.60;99.90;;;;;;5003365;28;20022;-68
2023/10/29 02:27:16;;;;;;;3.28;1.60;;;11.60;99.90;;;;;;4998832;28;20037;-68
2023/10/29 02:29:42;;;;;;;3.13;1.25;;;11.60;99.90;;;;;;5000022;28;20120;-68
2023/10/29 02:32:08;;;;;;;4.38;1.25;;;11.60;99.90;;;;;;5007611;28;20659;-68
2023/10/29 02:34:34;;;;;;;1.42;1.08;;;11.70;99.90;;;;;;4995614;28;20022;-68
2023/10/29 02:37:00;;;;;;;2.63;1.35;;;11.70;99.90;;;;;;5001559;28;20529;-68
2023/10/29 02:39:26;;;;;;;2.63;1.25;;;11.80;99.90;;;;;;4999204;28;20045;-68
2023/10/29 02:41:52;;;;;;;2.15;0.98;;;11.80;99.90;;;;;;4998885;28;20030;-68
2023/10/29 02:44:17;;;;;;;7.68;1.88;;;11.80;99.90;;;;;;5004642;28;20045;-69
2023/10/29 02:46:43;;;;;;;3.42;1.40;;;11.70;99.90;;;;;;5005148;28;20097;-68
2023/10/29 02:49:11;;;;;;;5.88;1.55;;;11.70;99.90;;;;;;5003938;28;20026;-68
2023/10/29 02:51:37;;;;;;;6.63;1.42;;;11.60;99.90;;;;;;4997715;28;20031;-68
2023/10/29 02:54:03;;;;;;;6.25;1.50;;;11.50;99.90;;;;;;5017521;28;20521;-68
2023/10/29 02:56:30;;;;;;;3.72;1.95;;;11.40;99.90;;;;;;5003727;28;20040;-68
2023/10/29 02:58:56;;;;;;;4.30;1.60;;;11.30;99.90;;;;;;5003804;28;20026;-68
2023/10/29 03:01:22;;;;;;;2.40;1.20;;;11.30;99.90;;;;;;5002743;28;20140;-68
2023/10/29 03:03:47;;;;;;;2.80;1.40;;;11.20;99.90;;;;;;5001987;28;20059;-68
2023/10/29 03:06:14;;;;;;;3.85;1.50;;;11.30;99.90;;;;;;5004203;28;20042;-68
2023/10/29 03:08:40;;;;;;;2.28;1.70;;;11.30;99.90;;;;;;5002343;28;20500;-68
2023/10/29 03:11:05;;;;;;;2.83;1.50;;;11.40;99.90;;;;;;5002165;28;20029;-68
2023/10/29 03:13:31;;;;;;;2.22;1.67;;;11.40;99.90;;;;;;5002135;28;20060;-68
2023/10/29 03:15:57;;;;;;;3.15;1.40;;;11.40;99.90;;;;;;5008241;28;20629;-68
2023/10/29 03:18:23;;;;;;;7.05;1.60;;;11.50;99.90;;;;;;5009386;28;20034;-68
2023/10/29 03:20:49;;;;;;;4.57;1.40;;;11.50;99.90;;;;;;5006729;28;20038;-68
2023/10/29 03:23:15;;;;;;;2.85;1.20;;;11.60;99.90;;;;;;4996022;28;20092;-68
2023/10/29 03:25:44;;;;;;;6.28;2.13;;;11.60;99.90;;;;;;4996582;28;20057;-68
2023/10/29 03:28:10;;;;;;;3.28;1.38;;;11.70;99.90;;;;;;4995361;28;20033;-68
2023/10/29 03:30:36;;;;;;;4.32;1.65;;;11.70;99.90;;;;;;4996230;28;20108;-68
2023/10/29 03:33:02;;;;;;;5.45;1.40;;;11.70;99.90;;;;;;5002564;28;20160;-68
2023/10/29 03:35:28;;;;;;;4.35;1.38;;;11.70;99.90;;;;;;4991655;28;20124;-68
2023/10/29 03:37:54;;;;;;;1.77;1.10;;;11.70;99.90;;;;;;5000504;28;20423;-68
2023/10/29 03:40:20;;;;;;;2.75;1.30;;;11.80;99.90;;;;;;4997663;28;20040;-68
2023/10/29 03:42:46;;;;;;;6.82;1.45;;;11.80;99.90;;;;;;5002809;28;20656;-68
2023/10/29 03:45:12;;;;;;;2.63;1.40;;;11.70;99.90;;;;;;4986670;28;20040;-68
2023/10/29 03:47:38;;;;;;;7.82;1.23;;;11.70;99.90;;;;;;5002674;28;20033;-68
2023/10/29 03:50:04;;;;;;;4.43;1.88;;;11.60;99.90;;;;;;5001332;28;20037;-68
2023/10/29 03:52:30;;;;;;;5.00;1.42;;;11.50;99.90;;;;;;5001421;28;20033;-68
2023/10/29 03:54:55;;;;;;;1.77;1.25;;;11.50;99.90;;;;;;4998855;28;20664;-68
2023/10/29 03:57:21;;;;;;;8.68;1.70;;;11.50;99.90;;;;;;5028558;28;20030;-68
2023/10/29 03:59:47;;;;;;;4.63;1.25;;;11.40;99.90;;;;;;4995114;28;20040;-68
2023/10/29 04:02:13;;;;;;;3.75;1.67;;;11.40;99.90;;;;;;4998425;28;20565;-68
2023/10/29 04:04:40;;;;;;;1.98;1.25;;;11.40;99.90;;;;;;5006016;28;20041;-68
2023/10/29 04:07:06;;;;;;;4.75;1.10;;;11.30;99.90;;;;;;5002191;28;20095;-68
2023/10/29 04:09:32;;;;;;;5.40;1.98;;;11.30;99.90;;;;;;5001197;28;20030;-68
2023/10/29 04:11:59;;;;;;;6.75;1.60;;;11.40;99.90;;;;;;5002803;28;20041;-68
2023/10/29 04:14:25;;;;;;;4.03;1.70;;;11.40;99.90;;;;;;4999772;28;20034;-68
2023/10/29 04:16:50;;;;;;;4.82;1.45;;;11.40;99.90;;;;;;5004183;28;20044;-68
2023/10/29 04:19:16;;;;;;;7.68;1.70;;;11.50;99.90;;;;;;5005531;28;20042;-68
2023/10/29 04:21:42;;;;;;;2.88;1.75;;;11.60;99.90;;;;;;5006360;28;20033;-68
2023/10/29 04:24:09;;;;;;;3.95;1.58;;;11.60;99.90;;;;;;5006993;28;20121;-68
2023/10/29 04:26:34;;;;;;;5.75;1.27;;;11.60;99.90;;;;;;5006674;28;20042;-68
2023/10/29 04:29:00;;;;;;;4.05;1.25;;;11.60;99.90;;;;;;5006721;28;20065;-68
2023/10/29 04:31:26;;;;;;;4.78;1.92;;;11.50;99.90;;;;;;5001189;28;20668;-67
2023/10/29 04:33:52;;;;;;;5.75;1.60;;;11.40;99.90;;;;;;5004034;28;20037;-67
2023/10/29 04:36:22;;;;;;;5.88;1.85;;;11.50;99.90;;;;;;5005598;28;20552;-67
2023/10/29 04:38:48;;;;;;;7.57;1.52;;;11.60;99.90;;;;;;5001708;28;20034;-68
2023/10/29 04:41:14;;;;;;;3.28;1.10;;;11.60;99.90;;;;;;5006267;28;20025;-68
2023/10/29 04:43:43;;;;;;;4.28;1.52;;;11.60;99.90;;;;;;5006456;28;20636;-68
2023/10/29 04:46:10;;;;;;;3.50;1.77;;;11.60;99.90;;;;;;5006432;28;20728;-68
2023/10/29 04:48:39;;;;;;;5.80;1.48;;;11.70;99.90;;;;;;5006443;28;20041;-68
2023/10/29 04:51:08;;;;;;;3.83;1.60;;;11.70;99.90;;;;;;5006273;28;20034;-67
2023/10/29 04:53:34;;;;;;;4.45;1.55;;;11.60;99.90;;;;;;5003691;28;20038;-68
2023/10/29 04:56:00;;;;;;;2.75;1.52;;;11.60;99.90;;;;;;5006139;28;20030;-67
2023/10/29 04:58:26;;;;;;;2.35;1.38;;;11.60;99.90;;;;;;4999950;28;20517;-67
2023/10/29 05:00:52;;;;;;;3.83;1.50;;;11.60;99.90;;;;;;5005795;28;20042;-67
2023/10/29 05:03:17;;;;;;;3.88;1.40;;;11.60;99.90;;;;;;5004653;28;20068;-68
2023/10/29 05:05:43;;;;;;;6.32;1.20;;;11.60;99.90;;;;;;5005706;28;20030;-67
2023/10/29 05:08:09;;;;;;;7.93;1.73;;;11.60;99.90;;;;;;5003073;28;20112;-68
2023/10/29 05:10:35;;;;;;;5.13;1.20;;;11.50;99.90;;;;;;5000685;28;20026;-67
2023/10/29 05:13:01;;;;;;;2.00;1.40;;;11.50;99.90;;;;;;5004600;28;20137;-67
2023/10/29 05:15:27;;;;;;;2.03;1.38;;;11.50;99.90;;;;;;5005830;28;20030;-67
2023/10/29 05:17:53;;;;;;;5.95;1.55;;;11.50;99.90;;;;;;5005864;28;20029;-67
2023/10/29 05:20:18;;;;;;;5.50;1.52;;;11.50;99.90;;;;;;5005400;28;20049;-68
2023/10/29 05:22:44;;;;;;;3.63;1.48;;;11.60;99.90;;;;;;5005481;28;20049;-67
2023/10/29 05:25:10;;;;;;;3.65;1.50;;;11.60;99.90;;;;;;4997452;28;20022;-67
2023/10/29 05:27:36;;;;;;;2.35;1.30;;;11.60;99.90;;;;;;5005601;28;20030;-67
2023/10/29 05:30:05;;;;;;;4.85;1.70;;;11.70;99.90;;;;;;5020582;28;20037;-67
2023/10/29 05:32:32;;;;;;;7.05;1.55;;;11.60;99.90;;;;;;5005574;28;20033;-67
2023/10/29 05:34:58;;;;;;;5.60;2.38;;;11.60;99.90;;;;;;5004321;28;20026;-67
2023/10/29 05:37:24;;;;;;;5.50;2.10;;;11.60;99.90;;;;;;5005770;28;20030;-68
2023/10/29 05:39:51;;;;;;;4.30;1.42;;;11.70;99.90;;;;;;5004017;28;20065;-67
2023/10/29 05:42:17;;;;;;;8.60;1.67;;;11.70;99.90;;;;;;5004007;28;20084;-68
2023/10/29 05:44:43;;;;;;;4.93;2.05;;;11.70;99.90;;;;;;4999089;28;20875;-67
2023/10/29 05:47:09;;;;;;;4.05;1.30;;;11.80;99.90;;;;;;5004807;28;20034;-68
2023/10/29 05:49:35;;;;;;;3.08;1.80;;;11.80;99.90;;;;;;5004944;28;20037;-67
2023/10/29 05:52:01;;;;;;;4.15;1.48;;;11.80;99.90;;;;;;5004120;28;20037;-68
2023/10/29 05:54:27;;;;;;;7.15;1.67;;;11.80;99.90;;;;;;5004502;28;20057;-68
2023/10/29 05:56:52;;;;;;;8.98;1.40;;;11.90;99.90;;;;;;4998596;28;20108;-68
2023/10/29 05:59:18;;;;;;;6.72;1.33;;;11.90;99.90;;;;;;5002050;28;20042;-68
2023/10/29 06:01:44;;;;;;;3.90;1.17;;;11.80;99.90;;;;;;4997189;28;20038;-67
2023/10/29 06:04:10;;;;;;;8.88;1.50;;;11.90;99.90;;;;;;5004500;28;20048;-68
2023/10/29 06:06:36;;;;;;;3.65;1.30;;;12.00;99.90;;;;;;4999446;28;20037;-67
2023/10/29 06:09:02;;;;;;;9.48;1.58;;;12.00;99.90;;;;;;5002528;28;20041;-68
2023/10/29 06:11:28;;;;;;;2.13;1.30;;;12.10;99.90;;;;;;5003520;28;20152;-67
2023/10/29 06:13:57;;;;;;;4.68;1.40;;;12.10;99.90;;;;;;5001936;28;20158;-67
2023/10/29 06:16:23;;;;;;;4.95;1.67;;;12.00;99.90;;;;;;5003700;28;20025;-67
2023/10/29 06:18:49;;;;;;;3.20;1.33;;;12.00;99.90;;;;;;5004328;28;20687;-68
2023/10/29 06:21:17;;;;;;;7.90;1.60;;;12.10;99.90;;;;;;5003415;28;20034;-68
2023/10/29 06:23:43;;;;;;;3.60;1.38;;;12.20;99.90;;;;;;5000818;28;20022;-67
2023/10/29 06:26:08;;;;;;;3.78;1.20;;;12.30;99.90;;;;;;5004366;28;20033;-67
2023/10/29 06:28:34;;;;;;;3.95;1.17;;;12.20;99.90;;;;;;4997898;28;20038;-68
2023/10/29 06:31:00;;;;;;;2.55;1.40;;;12.10;99.90;;;;;;5002897;28;20132;-68
2023/10/29 06:33:26;;;;;;;2.78;1.13;;;12.20;99.90;;;;;;5003151;28;20021;-68
2023/10/29 06:35:52;;;;;;;4.43;1.25;;;12.20;99.90;;;;;;5002901;28;20099;-68
2023/10/29 06:38:17;;;;;;;6.70;1.50;;;12.20;99.90;;;;;;5003082;28;20038;-67
2023/10/29 06:40:43;;;;;;;2.55;1.10;;;12.20;99.90;;;;;;5003031;28;20431;-68
2023/10/29 06:43:09;;;;;;;4.68;1.58;;;12.20;99.90;;;;;;4997370;28;20780;-67
2023/10/29 06:45:35;;;;;;;3.90;1.58;;;12.10;99.90;;;;;;5004410;28;20494;-68
2023/10/29 06:48:01;;;;;;;6.22;1.52;;;12.10;99.90;;;;;;5004220;28;20037;-67
2023/10/29 06:50:26;;;;;;;6.63;1.33;;;12.10;99.90;;;;;;4999407;28;20030;-67
2023/10/29 06:52:52;;;;;;;6.22;1.33;;;12.20;99.90;;;;;;5000417;28;20033;-67
2023/10/29 06:55:18;;;;;;;2.15;1.20;;;12.20;99.90;;;;;;4995950;28;20030;-67
2023/10/29 06:57:44;;;;;;;3.92;1.20;;;12.20;99.90;;;;;;4996952;28;20040;-67
2023/10/29 07:00:10;;;;;;;1.95;1.10;;;12.20;99.90;;;;;;4994944;28;20030;-68
2023/10/29 07:02:36;;;;;;;3.10;1.25;;;12.20;99.90;;;;;;5003037;28;20032;-67
2023/10/29 07:05:02;;;;;;;2.90;1.23;;;12.30;99.90;;;;;;5003161;28;20411;-67
2023/10/29 07:07:29;;;;;;;6.50;1.20;;;12.20;99.90;;;;;;5003472;28;20034;-67
2023/10/29 07:09:56;;;;;;;3.65;1.17;;;12.30;99.90;;;;;;4999930;28;20674;-68
2023/10/29 07:12:22;;;;;;;2.03;1.77;;;12.30;99.90;;;;;;5003871;28;20462;-67
2023/10/29 07:14:48;;;;;;;4.72;1.38;;;12.20;99.90;;;;;;5002179;28;20041;-67
2023/10/29 07:17:14;;;;;;;1.67;1.10;;;12.20;99.90;;;;;;5002023;28;20833;-68
2023/10/29 07:19:40;;;;;;;4.10;1.45;;;12.20;99.90;;;;;;5002503;28;20113;-67
2023/10/29 07:22:06;;;;;;;2.78;1.00;;;12.20;99.90;;;;;;5003116;28;20049;-67
2023/10/29 07:24:34;;;;;;;2.95;1.13;;;12.10;99.90;;;;;;4999636;28;20113;-67
2023/10/29 07:27:01;;;;;;;1.73;1.10;;;12.10;99.90;;;;;;5000189;28;20097;-67
2023/10/29 07:29:27;;;;;;;4.75;1.00;;;12.00;99.90;;;;;;5003148;28;20633;-67
2023/10/29 07:31:53;;;;;;;1.83;1.17;;;12.00;99.90;;;;;;5003965;28;20030;-68
2023/10/29 07:34:19;;;;;;;3.58;1.08;;;11.90;99.90;;;;;;5002987;28;20033;-68
2023/10/29 07:36:44;;;;;;;5.90;1.10;;;11.90;99.90;;;;;;5001155;28;20152;-68
2023/10/29 07:39:11;;;;;;;5.72;2.05;;;12.00;99.90;;;;;;5006149;28;20108;-69
2023/10/29 07:41:36;;;;;;;3.75;1.25;;;12.00;99.90;;;;;;5007073;28;20076;-68
2023/10/29 07:44:02;;;;;;;6.28;1.50;;;11.90;99.90;;;;;;5006880;28;20042;-68
2023/10/29 07:46:28;;;;;;;3.08;1.25;;;11.90;99.90;;;;;;5007477;28;20044;-68
2023/10/29 07:48:55;;;;;;;4.13;1.23;;;11.90;99.90;;;;;;5003073;28;20136;-68
2023/10/29 07:51:21;;;;;;;4.22;1.42;;;11.90;99.90;;;;;;5002926;28;20034;-68
2023/10/29 07:53:47;;;;;;;2.17;1.20;;;12.00;99.90;;;;;;5003412;28;20026;-67
2023/10/29 07:56:13;;;;;;;5.68;1.50;;;12.00;99.90;;;;;;5006632;28;20032;-68
2023/10/29 07:58:40;;;;;;;4.38;1.15;;;12.10;99.90;;;;;;4997419;28;20072;-68
2023/10/29 08:01:17;;;;;;;3.28;1.30;;;12.10;99.90;;;;;;4996443;28;20038;-67
2023/10/29 08:03:44;;;;;;;5.97;1.38;;;12.10;99.90;;;;;;5005938;28;20034;-67
2023/10/29 08:06:11;;;;;;;3.05;1.65;;;12.20;99.90;;;;;;4999092;28;20091;-67
2023/10/29 08:08:37;;;;;;;3.75;1.33;;;12.20;99.90;;;;;;5000893;28;20030;-68
2023/10/29 08:11:03;;;;;;;5.22;1.60;;;12.20;99.90;;;;;;4998894;28;20540;-68
2023/10/29 08:13:29;;;;;;;2.50;1.35;;;12.20;99.90;;;;;;5001085;28;20034;-69
2023/10/29 08:15:55;;;;;;;3.33;1.13;;;12.20;99.90;;;;;;5004220;28;20076;-68
2023/10/29 08:18:21;;;;;;;4.28;1.75;;;12.20;99.90;;;;;;5006290;28;20033;-68
2023/10/29 08:20:47;;;;;;;4.05;1.00;;;12.20;99.90;;;;;;5000167;28;20052;-68
2023/10/29 08:23:13;;;;;;;4.30;1.10;;;12.30;99.90;;;;;;5002740;28;20034;-68
2023/10/29 08:25:39;;;;;;;4.07;1.20;;;12.30;99.90;;;;;;5004312;28;20034;-68
2023/10/29 08:28:10;;;;;;;6.90;1.90;;;12.40;99.90;;;;;;5004111;28;20069;-68
2023/10/29 08:30:36;;;;;;;2.55;0.98;;;12.50;99.90;;;;;;5005807;28;20513;-68
2023/10/29 08:33:02;;;;;;;4.25;1.13;;;12.50;99.90;;;;;;5004523;28;20077;-67
2023/10/29 08:35:28;;;;;;;1.67;0.70;;;12.50;99.90;;;;;;5006180;28;20092;-68
2023/10/29 08:37:54;;;;;;;3.05;1.08;;;12.50;99.90;;;;;;5001929;28;20123;-68
2023/10/29 08:40:20;;;;;;;2.65;1.27;;;12.50;99.90;;;;;;4993179;28;20029;-67
2023/10/29 08:42:46;;;;;;;2.05;1.00;;;12.50;99.90;;;;;;4999140;28;20022;-68
2023/10/29 08:45:12;;;;;;;5.53;1.50;;;12.50;99.90;;;;;;4998566;28;20478;-69
2023/10/29 08:47:38;;;;;;;1.65;1.55;;;12.70;99.90;;;;;;5005414;28;20061;-65
2023/10/29 08:50:08;;;;;;;5.38;1.20;;;12.70;99.90;;;;;;5006096;28;20129;-67
2023/10/29 08:52:34;;;;;;;2.88;0.90;;;12.90;99.90;;;;;;5003726;28;20061;-67
2023/10/29 08:55:00;;;;;;;4.28;1.27;;;12.90;99.90;;;;;;5004472;28;20022;-67
2023/10/29 08:57:26;;;;;;;5.30;1.08;;;12.90;99.90;;;;;;5005740;28;20036;-67
2023/10/29 08:59:52;;;;;;;4.38;1.02;;;13.00;99.90;;;;;;5003701;28;20490;-65
2023/10/29 09:02:17;;;;;;;2.47;0.80;;;12.90;99.90;;;;;;5005228;28;20742;-67
2023/10/29 09:04:43;;;;;;;2.05;1.23;;;12.90;99.90;;;;;;5000421;28;20034;-67
2023/10/29 09:07:09;;;;;;;2.83;1.10;;;12.90;99.90;;;;;;5002103;28;20501;-67
2023/10/29 09:09:37;;;;;;;1.77;1.30;;;12.80;99.90;;;;;;5004305;28;20057;-67
2023/10/29 09:12:03;;;;;;;6.88;1.20;;;12.70;99.90;;;;;;5005488;28;20073;-67
2023/10/29 09:14:29;;;;;;;4.05;1.05;;;12.70;99.90;;;;;;5001545;28;20053;-67
2023/10/29 09:16:55;;;;;;;1.30;0.80;;;12.70;99.90;;;;;;5004120;28;20613;-67
2023/10/29 09:19:21;;;;;;;2.80;0.80;;;12.80;99.90;;;;;;5000553;28;20034;-67
2023/10/29 09:21:47;;;;;;;3.50;1.10;;;12.80;99.90;;;;;;4998430;28;20037;-66
2023/10/29 09:24:15;;;;;;;2.97;1.00;;;12.80;99.90;;;;;;5036103;28;20034;-65
2023/10/29 09:26:41;;;;;;;3.90;1.15;;;12.90;99.90;;;;;;4998612;28;20044;-66
2023/10/29 09:29:08;;;;;;;3.78;1.30;;;12.90;99.90;;;;;;4995838;28;20037;-66
2023/10/29 09:31:34;;;;;;;1.42;0.70;;;13.00;99.90;;;;;;5004973;28;20032;-66
2023/10/29 09:34:01;;;;;;;2.83;1.10;;;13.00;99.90;;;;;;4997353;28;20029;-67
2023/10/29 09:36:27;;;;;;;2.55;0.80;;;13.00;99.90;;;;;;5003445;28;20048;-66
2023/10/29 09:38:53;;;;;;;6.22;1.50;;;13.10;99.90;;;;;;5002874;28;20092;-66
2023/10/29 09:41:18;;;;;;;2.17;0.93;;;13.20;99.90;;;;;;5002872;28;20791;-66
2023/10/29 09:43:46;;;;;;;5.78;1.25;;;13.20;99.90;;;;;;4999487;28;20049;-66
2023/10/29 09:46:12;;;;;;;3.40;1.00;;;13.20;99.90;;;;;;4995761;28;20045;-66
2023/10/29 09:48:39;;;;;;;5.72;1.25;;;13.20;99.90;;;;;;5002834;28;20053;-66
2023/10/29 09:51:09;;;;;;;2.00;0.70;;;13.30;99.90;;;;;;4998146;28;20030;-66
2023/10/29 09:53:36;;;;;;;6.72;1.00;;;13.30;99.90;;;;;;5002661;28;20421;-67
2023/10/29 09:56:05;;;;;;;2.88;0.98;;;13.40;99.90;;;;;;4996871;28;20437;-67
2023/10/29 09:58:30;;;;;;;7.13;1.38;;;13.50;99.90;;;;;;5003482;28;20036;-67
2023/10/29 10:00:58;;;;;;;1.42;0.98;;;13.50;99.90;;;;;;5004215;28;20045;-67
2023/10/29 10:03:27;;;;;;;2.95;1.00;;;13.60;99.90;;;;;;5003651;28;20490;-67
2023/10/29 10:05:52;;;;;;;2.08;0.70;;;13.40;99.90;;;;;;4996103;28;20389;-67
2023/10/29 10:08:26;;;;;;;1.35;0.80;;;13.40;99.90;;;;;;4994713;28;20038;-67
2023/10/29 10:10:52;;;;;;;1.73;1.02;;;13.30;99.90;;;;;;4996636;28;20054;-67
2023/10/29 10:13:34;;;;;;;8.07;3.08;;;13.50;99.90;;;;;;4999291;28;20501;-67
2023/10/29 10:16:14;;;;;;;2.92;1.50;;;13.60;99.90;;;;;;4992048;28;20038;-67
2023/10/29 10:18:57;;;;;;;1.80;0.75;;;13.70;99.90;;;;;;5004676;28;20518;-66
2023/10/29 10:21:41;;;;;;;1.95;0.75;;;13.80;99.90;;;;;;5000021;28;20030;-66
2023/10/29 10:24:07;;;;;;;5.13;1.45;;;13.80;99.90;;;;;;5003177;28;20045;-67
2023/10/29 10:26:35;;;;;;;3.20;0.80;;;13.80;99.90;;;;;;5004238;28;20041;-67
2023/10/29 10:29:03;;;;;;;1.17;0.82;;;13.80;99.90;;;;;;5004516;28;20088;-66
2023/10/29 10:31:31;;;;;;;2.42;0.90;;;13.90;99.90;;;;;;4998923;28;20092;-66
2023/10/29 10:34:15;;;;;;;2.15;0.75;;;13.90;99.90;;;;;;5002582;28;20044;-66
2023/10/29 10:36:42;;;;;;;0.57;0.57;;;13.90;99.90;;;;;;5003760;28;20133;-67
2023/10/29 10:39:08;;;;;;;3.03;0.70;;;13.90;99.90;;;;;;4997837;28;20095;-68
2023/10/29 10:41:47;;;;;;;5.20;1.13;;;14.10;99.90;;;;;;5000694;28;20798;-67
2023/10/29 10:44:21;;;;;;;4.10;1.88;;;14.10;99.90;;;;;;5003637;28;20033;-68
2023/10/29 10:46:48;;;;;;;2.85;0.80;;;14.20;99.90;;;;;;5004904;28;20374;-67
2023/10/29 10:49:15;;;;;;;1.73;0.73;;;14.30;99.90;;;;;;5002512;28;20030;-67
2023/10/29 10:51:41;;;;;;;1.25;0.63;;;14.40;99.90;;;;;;4998426;28;20026;-67
2023/10/29 10:54:07;;;;;;;1.02;0.70;;;14.40;99.90;;;;;;5002985;28;20104;-68
2023/10/29 10:56:35;;;;;;;1.83;1.10;;;14.50;99.90;;;;;;4999210;28;20470;-68
2023/10/29 10:59:05;;;;;;;4.13;1.10;;;14.60;99.90;;;;;;5003017;28;20038;-65
2023/10/29 11:01:32;;;;;;;4.25;0.90;;;14.80;99.90;;;;;;4997975;28;20379;-67
2023/10/29 11:04:00;;;;;;;0.88;0.70;;;14.90;99.90;;;;;;4998974;28;20031;-67
2023/10/29 11:06:26;;;;;;;2.00;0.70;;;14.80;99.90;;;;;;5003617;28;20470;-68
2023/10/29 11:08:53;;;;;;;1.30;0.80;;;14.80;99.90;;;;;;5004135;28;20034;-68
2023/10/29 11:11:26;;;;;;;2.58;0.77;;;14.80;99.90;;;;;;5004360;28;20057;-68
2023/10/29 11:14:14;;;;;;;2.08;0.85;;;14.80;99.90;;;;;;5006419;28;20041;-68
2023/10/29 11:16:59;;;;;;;1.30;0.80;;;15.00;99.90;;;;;;5008405;28;20037;-68
2023/10/29 11:19:44;;;;;;;0.85;0.60;;;15.10;99.90;;;;;;5004492;28;20036;-67
2023/10/29 11:22:21;;;;;;;1.17;0.52;;;15.10;99.90;;;;;;5005054;28;20074;-66
2023/10/29 11:25:08;;;;;;;2.55;0.70;;;15.00;99.90;;;;;;5006637;28;20040;-68
2023/10/29 11:27:37;;;;;;;;;;;15.00;99.90;;;;;;4998595;28;20064;-67
2023/10/29 11:30:16;;;;;;;1.67;1.40;;;15.10;99.90;;;;;;5006835;28;19921;-68
2023/10/29 11:32:44;;;;;;;1.15;0.50;;;15.10;99.90;;;;;;5008159;28;20045;-68
2023/10/29 11:35:19;;;;;;;2.25;1.08;;;15.20;99.90;;;;;;5001555;28;20104;-67
2023/10/29 11:37:46;;;;;;;1.83;1.10;;;15.20;99.90;;;;;;5006342;28;20044;-68
2023/10/29 11:40:24;;;;;;;0.60;0.50;;;15.30;99.90;;;;;;5003881;28;20072;-68
2023/10/29 11:42:54;;;;;;;1.90;0.70;;;15.30;99.90;;;;;;5002866;28;20026;-68
2023/10/29 11:45:40;;;;;;;2.35;0.80;;;15.30;99.90;;;;;;5006539;28;20034;-68
2023/10/29 11:48:06;;;;;;;;;;;15.40;99.90;;;;;;5006503;28;20029;-68
2023/10/29 11:50:39;;;;;;;1.57;0.93;;;15.40;99.90;;;;;;5005889;28;19946;-68
2023/10/29 11:53:05;;;;;;;1.88;0.65;;;15.40;99.90;;;;;;5005224;28;20354;-68
2023/10/29 11:55:41;;;;;;;0.93;0.60;;;15.40;99.90;;;;;;5003631;28;20701;-68
2023/10/29 11:58:07;;;;;;;2.47;1.38;;;15.50;99.90;;;;;;4998802;28;20114;-67
2023/10/29 12:00:42;;;;;;;4.05;1.20;;;15.50;99.90;;;;;;5005353;28;20110;-67
2023/10/29 12:03:08;;;;;;;2.63;1.05;;;15.60;99.90;;;;;;5005538;28;20433;-68
2023/10/29 12:05:36;;;;;;;1.33;0.80;;;15.90;99.90;;;;;;5007261;28;20088;-67
2023/10/29 12:08:03;;;;;;;7.47;0.93;;;16.00;99.90;;;;;;5005742;28;20030;-68
2023/10/29 12:10:29;;;;;;;0.95;0.70;;;16.00;99.90;;;;;;5006851;28;20493;-67
2023/10/29 12:12:56;;;;;;;0.50;0.50;;;16.10;99.90;;;;;;5006336;28;20088;-68
2023/10/29 12:15:24;;;;;;;4.88;1.23;;;16.10;99.90;;;;;;5006652;28;20493;-67
2023/10/29 12:17:50;;;;;;;1.45;0.95;;;16.10;99.90;;;;;;5007291;28;20034;-67
2023/10/29 12:20:23;;;;;;;2.08;0.90;;;16.10;99.90;;;;;;5006832;28;20080;-78
2023/10/29 12:22:57;;;;;;;2.70;1.38;;;16.00;99.90;;;;;;5017167;28;20124;-68
2023/10/29 12:25:26;;;;;;;1.50;0.70;;;16.00;99.90;;;;;;4995071;28;20141;-67
2023/10/29 12:27:52;;;;;;;1.88;0.70;;;16.10;99.90;;;;;;5002620;28;20046;-67
2023/10/29 12:30:35;;;;;;;0.63;0.57;;;16.10;99.90;;;;;;5006172;28;20095;-67
2023/10/29 12:33:19;;;;;;;1.90;0.85;;;16.20;99.90;;;;;;5003904;28;20064;-67
2023/10/29 12:35:47;;;;;;;2.83;0.80;;;16.20;99.90;;;;;;5003610;28;20083;-71
2023/10/29 12:38:13;;;;;;;1.90;0.55;;;16.20;99.90;;;;;;5005489;28;20030;-67
2023/10/29 12:41:01;;;;;;;2.55;0.63;;;16.20;99.90;;;;;;5005597;28;20486;-67
2023/10/29 12:43:42;;;;;;;1.20;0.90;;;16.30;99.90;;;;;;4999191;28;20124;-67
2023/10/29 12:46:11;;;;;;;4.07;0.55;;;16.30;99.90;;;;;;5006252;28;20502;-67
2023/10/29 12:49:07;;;;;;;1.58;0.60;;;16.20;99.90;;;;;;5004745;28;20029;-67